createdAt,value
2019-05-12T00:02:00.815Z,101540.07
2019-05-12T00:04:29.927Z,101551.96
2019-05-12T00:06:58.995Z,101544.91
2019-05-12T00:09:28.448Z,101548.84
2019-05-12T00:11:59.127Z,101553.23
2019-05-12T00:14:28.409Z,101557.61
2019-05-12T00:16:58.097Z,101556.64
2019-05-12T00:19:28.583Z,101560.53
2019-05-12T00:21:58.740Z,101559.16
2019-05-12T00:24:28.179Z,101565.28
2019-05-12T00:26:59.315Z,101567.45
2019-05-12T00:29:28.764Z,101571.41
2019-05-12T00:31:58.122Z,101570.97
2019-05-12T00:34:28.881Z,101569.56
2019-05-12T00:36:58.202Z,101570.00
2019-05-12T00:39:27.904Z,101564.16
2019-05-12T00:41:58.627Z,101571.65
2019-05-12T00:44:28.534Z,101565.03
2019-05-12T00:46:57.836Z,101567.16
2019-05-12T00:49:28.954Z,101573.27
2019-05-12T00:51:58.732Z,101571.91
2019-05-12T00:54:28.413Z,101576.72
2019-05-12T00:56:58.590Z,101585.03
2019-05-12T00:59:28.018Z,101591.11
2019-05-12T01:01:58.626Z,101598.16
2019-05-12T01:04:29.102Z,101595.43
2019-05-12T01:06:58.417Z,101598.95
2019-05-12T01:09:28.218Z,101597.58
2019-05-12T01:11:58.769Z,101601.95
2019-05-12T01:14:28.092Z,101602.78
2019-05-12T01:16:57.858Z,101615.05
2019-05-12T01:19:32.898Z,101607.05
2019-05-12T01:22:01.955Z,101613.65
2019-05-12T01:24:31.048Z,101617.08
2019-05-12T01:27:00.111Z,101619.71
2019-05-12T01:29:29.189Z,101626.72
2019-05-12T01:32:04.470Z,101634.19
2019-05-12T01:34:33.583Z,101631.91
2019-05-12T01:37:20.430Z,101637.18
2019-05-12T01:39:49.463Z,101640.66
2019-05-12T01:42:18.556Z,101648.97
2019-05-12T01:44:48.149Z,101652.88
2019-05-12T01:47:18.794Z,101660.32
2019-05-12T01:49:48.800Z,101666.88
2019-05-12T01:52:17.986Z,101672.11
2019-05-12T01:54:48.302Z,101676.95
2019-05-12T01:57:18.800Z,101676.46
2019-05-12T01:59:48.447Z,101677.69
2019-05-12T02:02:18.016Z,101693.52
2019-05-12T02:05:08.582Z,101697.47
2019-05-12T02:07:58.404Z,101690.83
2019-05-12T02:10:28.711Z,101689.45
2019-05-12T02:12:59.306Z,101693.32
2019-05-12T02:15:28.750Z,101691.47
2019-05-12T02:17:58.968Z,101692.34
2019-05-12T02:20:28.948Z,101695.77
2019-05-12T02:22:58.604Z,101693.47
2019-05-12T02:25:28.654Z,101700.45
2019-05-12T02:27:58.599Z,101707.48
2019-05-12T02:30:30.293Z,101711.80
2019-05-12T02:32:59.681Z,101711.78
2019-05-12T02:35:29.026Z,101721.02
2019-05-12T02:37:58.104Z,101726.19
2019-05-12T02:40:27.214Z,101733.17
2019-05-12T02:42:56.324Z,101739.28
2019-05-12T02:45:25.896Z,101740.89
2019-05-12T02:47:55.152Z,101746.55
2019-05-12T02:50:35.903Z,101755.30
2019-05-12T02:53:05.862Z,101757.78
2019-05-12T02:55:35.738Z,101766.95
2019-05-12T02:58:06.202Z,101769.05
2019-05-12T03:00:36.359Z,101775.19
2019-05-12T03:03:08.413Z,101774.65
2019-05-12T03:05:38.712Z,101782.45
2019-05-12T03:08:07.758Z,101787.68
2019-05-12T03:10:37.123Z,101782.73
2019-05-12T03:13:06.195Z,101793.61
2019-05-12T03:15:37.373Z,101792.17
2019-05-12T03:18:07.005Z,101793.84
2019-05-12T03:20:36.362Z,101791.96
2019-05-12T03:23:06.427Z,101797.18
2019-05-12T03:25:37.114Z,101799.33
2019-05-12T03:28:08.718Z,101804.98
2019-05-12T03:30:39.984Z,101807.08
2019-05-12T03:33:10.743Z,101811.84
2019-05-12T03:35:43.635Z,101815.25
2019-05-12T03:38:09.660Z,101819.13
2019-05-12T03:40:39.137Z,101823.40
2019-05-12T03:43:08.348Z,101823.69
2019-05-12T03:45:37.405Z,101831.52
2019-05-12T03:48:06.663Z,101836.67
2019-05-12T03:50:36.363Z,101840.02
2019-05-12T03:53:10.056Z,101836.81
2019-05-12T03:55:41.842Z,101843.77
2019-05-12T03:58:07.574Z,101840.59
2019-05-12T04:00:36.770Z,101842.28
2019-05-12T04:03:06.049Z,101845.29
2019-05-12T04:05:37.009Z,101852.25
2019-05-12T04:08:06.758Z,101852.07
2019-05-12T04:10:36.868Z,101867.39
2019-05-12T04:13:06.422Z,101870.40
2019-05-12T04:15:35.957Z,101873.89
2019-05-12T04:18:06.475Z,101880.81
2019-05-12T04:20:36.523Z,101894.85
2019-05-12T04:23:06.818Z,101901.44
2019-05-12T04:25:50.872Z,101905.77
2019-05-12T04:28:07.007Z,101907.84
2019-05-12T04:30:36.207Z,101917.49
2019-05-12T04:33:05.912Z,101924.02
2019-05-12T04:35:35.893Z,101927.02
2019-05-12T04:38:05.586Z,101927.84
2019-05-12T04:40:36.187Z,101923.89
2019-05-12T04:43:06.601Z,101937.00
2019-05-12T04:45:35.998Z,101934.43
2019-05-12T04:48:06.064Z,101933.94
2019-05-12T04:50:36.394Z,101946.71
2019-05-12T04:53:06.730Z,101949.81
2019-05-12T04:55:36.615Z,101956.39
2019-05-12T04:58:06.349Z,101959.58
2019-05-12T05:00:36.085Z,101962.64
2019-05-12T05:03:05.949Z,101969.33
2019-05-12T05:05:36.224Z,101975.97
2019-05-12T05:08:05.748Z,101971.20
2019-05-12T05:10:35.134Z,101978.28
2019-05-12T05:13:05.563Z,101985.81
2019-05-12T05:15:35.514Z,101997.30
2019-05-12T05:18:06.771Z,101997.83
2019-05-12T05:20:35.729Z,102006.78
2019-05-12T05:23:04.913Z,102008.12
2019-05-12T05:25:34.710Z,102023.23
2019-05-12T05:28:04.333Z,102019.81
2019-05-12T05:30:34.167Z,102022.14
2019-05-12T05:33:05.073Z,102027.97
2019-05-12T05:35:39.694Z,102038.64
2019-05-12T05:38:06.039Z,102043.54
2019-05-12T05:40:36.040Z,102047.13
2019-05-12T05:43:12.401Z,102055.16
2019-05-12T05:45:36.108Z,102058.81
2019-05-12T05:48:09.717Z,102059.82
2019-05-12T05:50:36.006Z,102064.73
2019-05-12T05:53:09.170Z,102060.90
2019-05-12T05:55:35.904Z,102072.06
2019-05-12T05:58:10.071Z,102071.27
2019-05-12T06:00:39.075Z,102071.39
2019-05-12T06:03:17.049Z,102081.20
2019-05-12T06:05:38.672Z,102082.19
2019-05-12T06:08:18.669Z,102096.41
2019-05-12T06:10:40.418Z,102104.91
2019-05-12T06:13:09.711Z,102104.17
2019-05-12T06:15:40.814Z,102109.20
2019-05-12T06:18:09.589Z,102108.50
2019-05-12T06:20:38.662Z,102115.27
2019-05-12T06:23:07.766Z,102121.07
2019-05-12T06:25:46.466Z,102121.56
2019-05-12T06:28:08.943Z,102129.63
2019-05-12T06:30:44.131Z,102132.45
2019-05-12T06:33:09.024Z,102134.41
2019-05-12T06:35:42.195Z,102131.45
2019-05-12T06:38:08.963Z,102135.65
2019-05-12T06:40:42.303Z,102134.56
2019-05-12T06:43:08.855Z,102143.13
2019-05-12T06:45:42.655Z,102137.09
2019-05-12T06:48:08.744Z,102146.14
2019-05-12T06:50:39.390Z,102144.50
2019-05-12T06:53:08.676Z,102153.48
2019-05-12T06:55:39.396Z,102155.87
2019-05-12T06:58:08.721Z,102161.75
2019-05-12T07:00:37.810Z,102160.55
2019-05-12T07:03:06.883Z,102155.00
2019-05-12T07:05:38.437Z,102157.73
2019-05-12T07:08:06.754Z,102158.33
2019-05-12T07:10:43.072Z,102160.70
2019-05-12T07:13:06.642Z,102169.20
2019-05-12T07:15:40.399Z,102169.88
2019-05-12T07:18:10.388Z,102169.22
2019-05-12T07:20:39.610Z,102167.73
2019-05-12T07:23:08.631Z,102172.27
2019-05-12T07:25:37.707Z,102172.05
2019-05-12T07:28:08.104Z,102176.23
2019-05-12T07:30:37.430Z,102176.90
2019-05-12T07:33:06.498Z,102181.15
2019-05-12T07:35:35.631Z,102184.52
2019-05-12T07:38:05.133Z,102189.58
2019-05-12T07:40:37.415Z,102184.06
2019-05-12T07:43:09.851Z,102182.41
2019-05-12T07:45:36.039Z,102187.91
2019-05-12T07:48:10.083Z,102183.22
2019-05-12T07:50:35.916Z,102191.86
2019-05-12T07:53:05.015Z,102195.59
2019-05-12T07:55:34.418Z,102187.91
2019-05-12T07:58:12.637Z,102193.02
2019-05-12T08:00:34.509Z,102192.08
2019-05-12T08:03:16.286Z,102187.91
2019-05-12T08:05:36.939Z,102197.72
2019-05-12T08:08:09.377Z,102200.55
2019-05-12T08:10:36.881Z,102208.56
2019-05-12T08:13:05.938Z,102192.77
2019-05-12T08:15:35.023Z,102207.08
2019-05-12T08:18:07.858Z,102201.00
2019-05-12T08:20:34.923Z,102203.00
2019-05-12T08:23:10.257Z,102210.39
2019-05-12T08:25:35.298Z,102208.81
2019-05-12T08:30:56.026Z,102212.31
2019-05-12T08:33:25.619Z,102205.38
2019-05-12T08:35:55.366Z,102201.09
2019-05-12T08:38:24.994Z,102210.59
2019-05-12T08:40:54.529Z,102214.34
2019-05-12T08:43:24.197Z,102212.30
2019-05-12T08:45:53.621Z,102210.78
2019-05-12T08:48:24.972Z,102208.78
2019-05-12T08:50:54.562Z,102212.97
2019-05-12T08:53:26.057Z,102212.72
2019-05-12T08:55:54.736Z,102208.83
2019-05-12T08:58:33.178Z,102213.03
2019-05-12T09:00:57.528Z,102211.98
2019-05-12T09:03:30.344Z,102214.02
2019-05-12T09:05:57.342Z,102223.91
2019-05-12T09:08:26.895Z,102213.39
2019-05-12T09:10:56.053Z,102220.58
2019-05-12T09:13:25.050Z,102220.28
2019-05-12T09:15:54.304Z,102227.55
2019-05-12T09:18:28.508Z,102222.38
2019-05-12T09:20:55.714Z,102222.52
2019-05-12T09:23:25.015Z,102232.84
2019-05-12T09:25:57.267Z,102224.15
2019-05-12T09:28:24.835Z,102235.77
2019-05-12T09:30:54.479Z,102231.84
2019-05-12T09:33:29.616Z,102238.18
2019-05-12T09:35:54.409Z,102221.94
2019-05-12T09:38:26.246Z,102228.72
2019-05-12T09:41:00.840Z,102234.64
2019-05-12T09:43:25.063Z,102227.70
2019-05-12T09:45:56.468Z,102227.34
2019-05-12T09:48:24.924Z,102240.70
2019-05-12T09:51:00.255Z,102237.28
2019-05-12T09:53:24.820Z,102245.38
2019-05-12T09:55:54.026Z,102248.21
2019-05-12T09:58:27.240Z,102246.55
2019-05-12T10:00:54.446Z,102247.58
2019-05-12T10:03:24.179Z,102251.30
2019-05-12T10:05:53.530Z,102247.45
2019-05-12T10:08:24.192Z,102248.11
2019-05-12T10:10:53.688Z,102248.25
2019-05-12T10:13:28.170Z,102251.48
2019-05-12T10:15:53.751Z,102253.80
2019-05-12T10:19:23.507Z,102253.03
2019-05-12T10:22:05.290Z,102254.47
2019-05-12T10:24:41.463Z,102256.86
2019-05-12T10:27:05.162Z,102263.70
2019-05-12T10:29:34.230Z,102261.56
2019-05-12T10:32:03.981Z,102254.02
2019-05-12T10:34:38.115Z,102257.27
2019-05-12T10:37:04.252Z,102263.63
2019-05-12T10:39:33.510Z,102258.42
2019-05-12T10:42:02.669Z,102263.48
2019-05-12T10:44:37.717Z,102266.69
2019-05-12T10:47:04.573Z,102275.70
2019-05-12T10:49:33.847Z,102274.53
2019-05-12T10:52:03.848Z,102270.13
2019-05-12T10:54:34.247Z,102266.58
2019-05-12T10:57:04.990Z,102279.52
2019-05-12T10:59:38.759Z,102270.26
2019-05-12T11:02:05.071Z,102281.88
2019-05-12T11:04:38.867Z,102277.06
2019-05-12T11:07:04.934Z,102279.82
2019-05-12T11:09:34.676Z,102283.52
2019-05-12T11:12:03.860Z,102280.88
2019-05-12T11:14:34.163Z,102283.20
2019-05-12T11:17:07.541Z,102281.87
2019-05-12T11:19:40.738Z,102277.03
2019-05-12T11:22:06.547Z,102286.86
2019-05-12T11:24:35.641Z,102281.09
2019-05-12T11:27:04.738Z,102291.37
2019-05-12T11:29:45.668Z,102288.27
2019-05-12T11:32:04.647Z,102283.86
2019-05-12T11:34:33.669Z,102290.98
2019-05-12T11:37:03.403Z,102279.80
2019-05-12T11:39:38.683Z,102290.92
2019-05-12T11:42:04.184Z,102291.75
2019-05-12T11:44:33.790Z,102293.06
2019-05-12T11:47:03.666Z,102292.08
2019-05-12T11:49:33.355Z,102286.20
2019-05-12T11:52:07.478Z,102295.52
2019-05-12T11:54:33.689Z,102293.14
2019-05-12T11:57:02.780Z,102296.08
2019-05-12T11:59:34.030Z,102295.00
2019-05-12T12:02:02.573Z,102303.73
2019-05-12T12:04:47.057Z,102308.05
2019-05-12T12:07:16.645Z,102310.55
2019-05-12T12:09:49.551Z,102304.53
2019-05-12T12:12:16.601Z,102317.41
2019-05-12T12:14:50.180Z,102299.33
2019-05-12T12:17:16.523Z,102324.87
2019-05-12T12:19:46.935Z,102314.45
2019-05-12T12:22:20.509Z,102315.28
2019-05-12T12:24:46.861Z,102313.36
2019-05-12T12:27:15.916Z,102318.69
2019-05-12T12:29:44.986Z,102317.01
2019-05-12T12:32:18.454Z,102313.96
2019-05-12T12:34:44.808Z,102321.60
2019-05-12T12:37:18.806Z,102315.44
2019-05-12T12:39:44.739Z,102327.22
2019-05-12T12:42:14.059Z,102320.94
2019-05-12T12:44:43.184Z,102317.63
2019-05-12T12:47:13.901Z,102327.63
2019-05-12T12:49:45.361Z,102328.66
2019-05-12T12:52:14.012Z,102335.80
2019-05-12T12:54:43.854Z,102339.20
2019-05-12T12:57:13.591Z,102340.53
2019-05-12T12:59:51.004Z,102333.64
2019-05-12T13:02:14.298Z,102338.92
2019-05-12T13:04:46.056Z,102341.86
2019-05-12T13:07:14.521Z,102337.00
2019-05-12T13:09:44.082Z,102345.16
2019-05-12T13:12:17.009Z,102339.95
2019-05-12T13:14:44.400Z,102347.91
2019-05-12T13:17:14.269Z,102353.38
2019-05-12T13:19:43.765Z,102348.91
2019-05-12T13:22:14.971Z,102347.05
2019-05-12T13:24:44.012Z,102347.28
2019-05-12T13:27:14.212Z,102355.70
2019-05-12T13:29:43.337Z,102349.98
2019-05-12T13:32:13.775Z,102352.94
2019-05-12T13:34:43.123Z,102366.84
2019-05-12T13:37:15.573Z,102371.23
2019-05-12T13:39:55.338Z,102368.22
2019-05-12T13:42:13.921Z,102358.64
2019-05-12T13:44:43.619Z,102367.82
2019-05-12T13:47:14.031Z,102363.61
2019-05-12T13:49:47.014Z,102368.55
2019-05-12T13:52:14.010Z,102372.69
2019-05-12T13:54:43.700Z,102373.56
2019-05-12T13:57:13.386Z,102373.45
2019-05-12T13:59:43.491Z,102366.50
2019-05-12T14:02:13.944Z,102375.53
2019-05-12T14:04:44.332Z,102369.36
2019-05-12T14:07:17.872Z,102375.91
2019-05-12T14:09:44.427Z,102371.52
2019-05-12T14:12:13.679Z,102371.43
2019-05-12T14:14:43.697Z,102373.30
2019-05-12T14:17:14.820Z,102367.88
2019-05-12T14:19:46.106Z,102381.12
2019-05-12T14:22:21.328Z,102373.89
2019-05-12T14:24:46.835Z,102374.84
2019-05-12T14:27:24.306Z,102378.28
2019-05-12T14:29:50.067Z,102379.27
2019-05-12T14:32:19.277Z,102387.28
2019-05-12T14:34:54.345Z,102383.06
2019-05-12T14:37:19.214Z,102375.98
2019-05-12T14:39:50.280Z,102373.75
2019-05-12T14:42:19.117Z,102375.94
2019-05-12T14:44:49.758Z,102373.27
2019-05-12T14:47:24.078Z,102371.29
2019-05-12T14:49:49.783Z,102377.16
2019-05-12T14:52:18.789Z,102383.81
2019-05-12T14:54:47.775Z,102380.87
2019-05-12T14:57:16.865Z,102389.55
2019-05-12T14:59:45.926Z,102388.86
2019-05-12T15:02:19.441Z,102391.02
2019-05-12T15:04:45.786Z,102393.78
2019-05-12T15:07:15.387Z,102391.64
2019-05-12T15:09:44.512Z,102388.41
2019-05-12T15:12:14.135Z,102387.97
2019-05-12T15:14:43.868Z,102387.09
2019-05-12T15:17:22.223Z,102394.47
2019-05-12T15:19:44.117Z,102399.02
2019-05-12T15:22:14.707Z,102389.62
2019-05-12T15:24:44.184Z,102404.13
2019-05-12T15:27:13.563Z,102407.58
2019-05-12T15:29:42.739Z,102402.53
2019-05-12T15:32:11.847Z,102401.12
2019-05-12T15:34:40.872Z,102413.73
2019-05-12T15:37:09.950Z,102412.77
2019-05-12T15:39:39.016Z,102417.55
2019-05-12T15:42:08.111Z,102409.27
2019-05-12T15:44:37.182Z,102410.75
2019-05-12T15:47:06.245Z,102424.41
2019-05-12T15:49:35.287Z,102423.23
2019-05-12T15:52:04.360Z,102428.85
2019-05-12T15:54:35.847Z,102424.47
2019-05-12T15:57:04.307Z,102417.80
2019-05-12T15:59:34.547Z,102419.77
2019-05-12T16:02:12.391Z,102424.35
2019-05-12T16:04:42.543Z,102431.23
2019-05-12T16:07:05.478Z,102425.97
2019-05-12T16:09:34.778Z,102426.94
2019-05-12T16:12:09.485Z,102433.27
2019-05-12T16:14:36.859Z,102425.25
2019-05-12T16:17:06.624Z,102439.66
2019-05-12T16:19:35.811Z,102438.34
2019-05-12T16:22:04.894Z,102432.64
2019-05-12T16:24:34.193Z,102439.39
2019-05-12T16:27:03.727Z,102443.46
2019-05-12T16:29:33.970Z,102438.58
2019-05-12T16:32:04.525Z,102445.36
2019-05-12T16:34:36.094Z,102446.30
2019-05-12T16:37:05.306Z,102449.92
2019-05-12T16:39:37.142Z,102451.27
2019-05-12T16:42:09.188Z,102449.97
2019-05-12T16:44:35.994Z,102457.14
2019-05-12T16:47:05.042Z,102451.36
2019-05-12T16:49:35.217Z,102454.92
2019-05-12T16:52:04.992Z,102454.95
2019-05-12T16:54:34.082Z,102460.31
2019-05-12T16:57:08.455Z,102450.03
2019-05-12T16:59:33.979Z,102450.02
2019-05-12T17:02:05.514Z,102453.15
2019-05-12T17:04:33.850Z,102455.85
2019-05-12T17:07:03.008Z,102459.42
2019-05-12T17:09:33.260Z,102462.10
2019-05-12T17:12:04.917Z,102461.19
2019-05-12T17:14:38.712Z,102462.06
2019-05-12T17:17:04.048Z,102469.63
2019-05-12T17:19:34.032Z,102473.16
2019-05-12T17:22:04.013Z,102465.12
2019-05-12T17:24:34.450Z,102469.95
2019-05-12T17:27:03.889Z,102468.61
2019-05-12T17:29:34.544Z,102473.48
2019-05-12T17:32:04.246Z,102473.91
2019-05-12T17:34:34.087Z,102471.63
2019-05-12T17:37:03.989Z,102480.50
2019-05-12T17:39:35.715Z,102476.00
2019-05-12T17:42:04.140Z,102485.73
2019-05-12T17:44:36.784Z,102480.31
2019-05-12T17:47:03.956Z,102486.04
2019-05-12T17:49:33.025Z,102493.58
2019-05-12T17:52:12.305Z,102494.87
2019-05-12T17:54:34.173Z,102503.77
2019-05-12T17:57:03.939Z,102498.82
2019-05-12T17:59:33.409Z,102499.64
2019-05-12T18:02:05.850Z,102511.20
2019-05-12T18:04:36.698Z,102512.04
2019-05-12T18:07:30.450Z,102519.56
2019-05-12T18:09:50.401Z,102519.97
2019-05-12T18:12:26.872Z,102527.52
2019-05-12T18:14:52.676Z,102527.47
2019-05-12T18:17:23.653Z,102527.84
2019-05-12T18:19:59.031Z,102522.00
2019-05-12T18:22:23.641Z,102534.86
2019-05-12T18:24:54.311Z,102543.72
2019-05-12T18:27:23.346Z,102547.20
2019-05-12T18:29:53.607Z,102542.67
2019-05-12T18:32:24.371Z,102547.44
2019-05-12T18:34:53.982Z,102555.84
2019-05-12T18:37:24.061Z,102554.86
2019-05-12T18:39:53.591Z,102562.36
2019-05-12T18:42:24.579Z,102570.31
2019-05-12T18:44:54.612Z,102565.76
2019-05-12T18:47:32.008Z,102573.67
2019-05-12T18:49:54.482Z,102575.80
2019-05-12T18:52:23.759Z,102582.42
2019-05-12T18:54:57.004Z,102590.36
2019-05-12T18:57:23.954Z,102587.58
2019-05-12T18:59:57.143Z,102593.31
2019-05-12T19:02:28.328Z,102594.09
2019-05-12T19:04:54.694Z,102598.93
2019-05-12T19:07:38.927Z,102603.30
2019-05-12T19:09:54.594Z,102602.32
2019-05-12T19:12:31.892Z,102606.69
2019-05-12T19:14:54.793Z,102608.79
2019-05-12T19:17:24.210Z,102609.65
2019-05-12T19:19:59.628Z,102612.64
2019-05-12T19:22:24.412Z,102631.19
2019-05-12T19:24:56.753Z,102638.14
2019-05-12T19:27:24.266Z,102636.24
2019-05-12T19:29:54.549Z,102641.92
2019-05-12T19:32:28.004Z,102651.63
2019-05-12T19:34:54.706Z,102653.75
2019-05-12T19:37:26.406Z,102665.61
2019-05-12T19:39:54.633Z,102665.95
2019-05-12T19:42:24.481Z,102661.41
2019-05-12T19:44:56.605Z,102668.38
2019-05-12T19:47:33.240Z,102674.96
2019-05-12T19:49:59.472Z,102673.05
2019-05-12T19:52:26.046Z,102672.97
2019-05-12T19:54:55.241Z,102671.97
2019-05-12T19:57:26.236Z,102681.26
2019-05-12T19:59:55.945Z,102684.73
2019-05-12T20:02:25.187Z,102689.06
2019-05-12T20:04:56.552Z,102689.42
2019-05-12T20:07:25.079Z,102688.42
2019-05-12T20:09:58.671Z,102690.13
2019-05-12T20:12:24.930Z,102690.90
2019-05-12T20:14:56.735Z,102705.02
2019-05-12T20:17:24.772Z,102697.72
2019-05-12T20:19:54.136Z,102706.03
2019-05-12T20:22:24.354Z,102706.80
2019-05-12T20:24:53.830Z,102700.50
2019-05-12T20:27:24.730Z,102705.30
2019-05-12T20:29:54.132Z,102713.20
2019-05-12T20:32:24.125Z,102717.11
2019-05-12T20:34:55.418Z,102712.98
2019-05-12T20:37:24.034Z,102718.66
2019-05-12T20:40:00.108Z,102723.86
2019-05-12T20:42:25.786Z,102719.69
2019-05-12T20:44:57.805Z,102727.18
2019-05-12T20:47:25.506Z,102726.61
2019-05-12T20:49:54.567Z,102726.96
2019-05-12T20:52:23.808Z,102728.12
2019-05-12T20:54:57.756Z,102731.04
2019-05-12T20:57:23.783Z,102729.47
2019-05-12T20:59:52.851Z,102732.34
2019-05-12T21:02:23.412Z,102741.05
2019-05-12T21:05:00.450Z,102739.09
2019-05-12T21:07:26.825Z,102732.80
2019-05-12T21:09:54.063Z,102743.28
2019-05-12T21:12:24.180Z,102745.41
2019-05-12T21:14:57.425Z,102746.23
2019-05-12T21:17:38.953Z,102748.34
2019-05-12T21:19:58.879Z,102755.73
2019-05-12T21:22:25.507Z,102758.29
2019-05-12T21:24:54.579Z,102759.51
2019-05-12T21:27:23.580Z,102763.78
2019-05-12T21:29:54.098Z,102771.11
2019-05-12T21:32:24.052Z,102778.05
2019-05-12T21:34:57.943Z,102772.14
2019-05-12T21:37:25.434Z,102774.59
2019-05-12T21:39:54.551Z,102781.12
2019-05-12T21:42:25.168Z,102781.95
2019-05-12T21:44:54.215Z,102777.81
2019-05-12T21:47:24.279Z,102788.31
2019-05-12T21:49:57.759Z,102795.68
2019-05-12T21:52:24.227Z,102805.25
2019-05-12T21:54:55.429Z,102806.42
2019-05-12T21:57:27.370Z,102805.85
2019-05-12T21:59:55.664Z,102811.48
2019-05-12T22:02:30.464Z,102813.55
2019-05-12T22:04:56.042Z,102816.06
2019-05-12T22:07:29.537Z,102812.36
2019-05-12T22:09:55.966Z,102811.36
2019-05-12T22:12:28.579Z,102822.31
2019-05-12T22:14:55.813Z,102818.71
2019-05-12T22:17:24.853Z,102825.73
2019-05-12T22:19:53.829Z,102825.21
2019-05-12T22:22:25.748Z,102832.56
2019-05-12T22:24:53.828Z,102833.78
2019-05-12T22:27:27.129Z,102830.55
2019-05-12T22:29:54.078Z,102830.88
2019-05-12T22:32:25.274Z,102834.85
2019-05-12T22:34:54.425Z,102828.91
2019-05-12T22:37:24.029Z,102831.02
2019-05-12T22:39:53.534Z,102840.30
2019-05-12T22:42:24.436Z,102840.13
2019-05-12T22:45:01.443Z,102840.05
2019-05-12T22:47:24.353Z,102841.71
2019-05-12T22:49:56.986Z,102837.59
2019-05-12T22:52:24.204Z,102832.55
2019-05-12T22:54:53.721Z,102839.88
2019-05-12T22:57:24.159Z,102843.69
2019-05-12T22:59:53.366Z,102837.80
2019-05-12T23:02:27.985Z,102846.59
2019-05-12T23:04:55.111Z,102840.64
2019-05-12T23:07:25.421Z,102845.83
2019-05-12T23:09:54.814Z,102850.17
2019-05-12T23:12:23.787Z,102852.76
2019-05-12T23:15:02.152Z,102846.87
2019-05-12T23:17:24.628Z,102853.01
2019-05-12T23:19:55.775Z,102855.53
2019-05-12T23:22:29.440Z,102851.92
2019-05-12T23:24:55.432Z,102853.56
2019-05-12T23:27:29.753Z,102860.19
2019-05-12T23:29:55.188Z,102860.55
2019-05-12T23:32:24.302Z,102853.28
2019-05-12T23:34:58.387Z,102855.44
2019-05-12T23:37:24.496Z,102867.66
2019-05-12T23:39:53.845Z,102856.87
2019-05-12T23:42:23.714Z,102865.56
2019-05-12T23:44:52.902Z,102863.09
2019-05-12T23:47:23.787Z,102867.42
2019-05-12T23:49:53.165Z,102858.48
2019-05-12T23:52:24.100Z,102860.61
2019-05-12T23:54:53.257Z,102866.11
2019-05-12T23:57:24.151Z,102864.59
2019-05-12T23:59:53.115Z,102865.75
